Airfield :
LOGIN :

Register | Disclaimer

   EN    FR    IT 

 










Legend :    VFR   Marginal VFR   IFR   Intensive IFR   Very Intensive IFR
Visi :
Ceiling :
>= 8 km
>= 3000ft
5 to 8 km
1000 to 3000 ft
1500m to 5 km
500 to 1000 ft
800 to 1500m
200 to 500 ft
< 800m
< 200 ft
Symbols :   Thunderstorms  Fog  Heavy snow  Heavy precipitations  Wind > 20 kt
SIGMETs :     Misc.  Thunderstorms  Icing  Turbulence  Mountain Waves  Volcanic Ashes






- Airport Elevation : 978 ft
- IATA code : LNZ


LOWL - Linz

CURRENT METAR :
  • 270550Z VRB02KT 9999 FEW005 09/08 Q1034 NOSIG

EXPIRED METARs :
  • 270520Z VRB02KT 9999 3000N VCFG FEW005 08/07 Q1034 NOSIG
  • 270450Z VRB01KT 9999 2000N BCFG FEW080 08/07 Q1034 NOSIG
  • 270420Z 26002KT 9000 2000N VCFG FEW080 06/06 Q1034 TEMPO 1200 BCFG
  • 270350Z 24002KT 8000 MIFG FEW080 05/05 Q1034 TEMPO 0800 BCFG
  • 270320Z 27002KT 6000 FEW080 06/06 Q1034 TEMPO 0800 BCFG

TAF TAF LOWL
Valid from the 27 at 06:00 until the 28 at 06:00 UTC


270515Z 2706/2806 28005KT 9999 FEW040 SCT080 TX19/2715Z TN09/2803Z



MET'MAP, your aeronautical weather chart ! - Copyright ORBIFLY December 2007 - Disclaimer

ORBIFLY MET'MAP TEAM :

Programming & Development : Alexandra Zaïnal
Concept & original design : Baudouin d'Aumeries
Assistance for programming : Marc-Olivier Méhu
Technical & hardware support : Manuel Goepfert

Contact : metmap@orbifly.com




SOURCES & CREDITS :

   NOAA